Flight Track Log - Related Links

Times and Time Zones

All times are in EDT time to prevent confusion due to time zone crossing. See the UAL5887 flight status page for this flight to view local times or setup timezone preferences in your user account.

Time Position Orientation Groundspeed Altitude Reporting Facility
EDT Latitude Longitude Course Direction KTS MPH feet Rate Location/Type
Fri 12:17:41 PM 42.0500 -87.9333 90° East 248 285 3,700  Level Chicago TRACON
Fri 12:18:41 PM 42.1000 -87.8667 45° Northeast 269 310 5,800 1,878 Climbing Chicago TRACON
Fri 12:19:36 PM 42.1347 -87.8161 47° Northeast 269 310 7,300 1,949 Climbing Chicago Center
Fri 12:20:38 PM 42.1689 -87.6892 70° East 303 349 9,600 1,984 Climbing Chicago Center
Fri 12:21:40 PM 42.1908 -87.5672 76° East 328 377 11,400 1,756 Climbing Chicago Center
Fri 12:22:41 PM 42.2131 -87.4392 77° East 348 400 13,200 1,610 Climbing Chicago Center
Fri 12:23:00 PM 42.2667 -87.0427 90° East  Level FlightAware Approximate
Fri 12:23:43 PM 42.2203 -87.3042 86° East 361 415 14,700  Level Chicago Center
Fri 12:24:45 PM 42.2242 -87.1614 88° East 378 435 15,900 1,113 Climbing Chicago Center
Fri 12:25:47 PM 42.2297 -87.0119 87° East 397 457 17,000 1,355 Climbing Chicago Center
Fri 12:26:49 PM 42.2347 -86.8261 88° East 412 474 18,700 1,258 Climbing Chicago Center
Fri 12:27:51 PM 42.2389 -86.6994 87° East 420 483 19,600 1,065 Climbing Chicago Center
Fri 12:28:53 PM 42.2447 -86.5258 87° East 428 493 20,900 1,366 Climbing Chicago Center
Fri 12:29:54 PM 42.2500 -86.3333 88° East 429 494 22,400 1,317 Climbing Chicago Center
Fri 12:30:56 PM 42.2547 -86.1689 88° East 436 502 23,600 1,161 Climbing Chicago Center
Fri 12:31:58 PM 42.2589 -86.0056 88° East 436 502 24,800 1,113 Climbing Chicago Center
Fri 12:33:00 PM 42.2611 -85.8575 89° East 434 499 25,900 1,210 Climbing Chicago Center
Fri 12:34:02 PM 42.2656 -85.6625 88° East 436 502 27,300 1,258 Climbing Chicago Center
Fri 12:35:04 PM 42.2694 -85.5006 88° East 433 498 28,500 1,171 Climbing Chicago Center
Fri 12:36:05 PM 42.2733 -85.3375 88° East 437 503 29,700 1,213 Climbing Chicago Center
Fri 12:36:33 PM 42.2775 -85.2564 86° East 421 484 30,300 1,227 Climbing Cleveland Center
Fri 12:37:33 PM 42.2797 -85.0964 89° East 421 484 31,500 1,200 Climbing Cleveland Center
Fri 12:38:33 PM 42.2819 -84.9339 89° East 421 484 32,700 1,050 Climbing Cleveland Center
Fri 12:39:33 PM 42.2836 -84.7739 89° East 426 490 33,600 650 Climbing Cleveland Center
Fri 12:40:33 PM 42.3022 -84.6067 81° East 426 490 34,000 200 Climbing Cleveland Center
Fri 12:41:33 PM 42.3561 -84.4303 67° East 460 529 34,000  Level Cleveland Center
Fri 12:42:33 PM 42.4122 -84.2478 67° East 495 570 34,000 100 Level Cleveland Center
Fri 12:43:33 PM 42.4656 -84.0708 68° East 507 583 34,200 500 Climbing Cleveland Center
Fri 12:44:33 PM 42.5169 -83.8906 69° East 512 589 35,000 400 Climbing Cleveland Center
Fri 12:45:33 PM 42.5700 -83.7100 68° East 506 582 35,000  Level Cleveland Center
Fri 12:46:33 PM 42.6225 -83.5292 68° East 506 582 35,000  Level Cleveland Center
Fri 12:47:33 PM 42.6750 -83.3453 69° East 506 582 35,000  Level Cleveland Center
Fri 12:48:33 PM 42.7250 -83.1664 69° East 506 582 35,000  Level Cleveland Center
Fri 12:49:33 PM 42.7769 -82.9847 69° East 501 577 35,000  Level Cleveland Center
Fri 12:50:33 PM 42.8264 -82.8083 69° East 501 577 35,000  Level Cleveland Center
Fri 12:51:33 PM 42.8756 -82.6286 69° East 501 577 35,000  Level Cleveland Center
Fri 12:51:57 PM 42.8833 -82.5500 82° East 510 587 35,000  Level Toronto Center
Fri 12:52:57 PM 42.9333 -82.3667 70° East 510 587 35,000  Level Toronto Center
Fri 12:53:57 PM 42.9833 -82.1833 69° East 510 587 35,000  Level Toronto Center
Fri 12:54:57 PM 43.0167 -82.0000 76° East 500 575 35,000  Level Toronto Center
Fri 12:55:57 PM 43.1000 -81.8167 58° Northeast 510 587 35,000  Level Toronto Center
Fri 12:56:57 PM 43.1500 -81.6500 68° East 520 598 35,000  Level Toronto Center
Fri 12:57:57 PM 43.2000 -81.4667 69° East 520 598 35,000  Level Toronto Center
Fri 12:58:57 PM 43.2500 -81.2833 69° East 510 587 35,000  Level Toronto Center
Fri 12:59:57 PM 43.3000 -81.1000 69° East 510 587 35,000  Level Toronto Center
Fri 01:00:57 PM 43.3500 -80.9167 69° East 510 587 35,000  Level Toronto Center
Fri 01:01:57 PM 43.4167 -80.7333 63° Northeast 510 587 35,000  Level Toronto Center
Fri 01:02:57 PM 43.4667 -80.5500 69° East 510 587 35,000  Level Toronto Center
Fri 01:03:57 PM 43.5167 -80.3667 69° East 520 598 35,000  Level Toronto Center
Fri 01:04:57 PM 43.5667 -80.1833 69° East 520 598 35,000  Level Toronto Center
Fri 01:05:57 PM 43.6167 -80.0000 69° East 520 598 35,000  Level Toronto Center
Fri 01:06:57 PM 43.6833 -79.8167 63° Northeast 510 587 35,000  Level Toronto Center
Fri 01:07:57 PM 43.7333 -79.6333 69° East 510 587 35,000  Level Toronto Center
Fri 01:08:57 PM 43.7833 -79.4500 69° East 510 587 35,000  Level Toronto Center
Fri 01:09:57 PM 43.8333 -79.2667 69° East 510 587 35,000  Level Toronto Center
Fri 01:10:57 PM 43.8833 -79.0833 69° East 510 587 35,000  Level Toronto Center
Fri 01:11:57 PM 43.9333 -78.9000 69° East 510 587 35,000  Level Toronto Center
Fri 01:12:57 PM 43.9833 -78.7000 71° East 510 587 35,000  Level Toronto Center
Fri 01:13:57 PM 44.0333 -78.5500 65° Northeast 510 587 35,000  Level Toronto Center
Fri 01:14:57 PM 44.0667 -78.3333 78° East 510 587 35,000  Level Toronto Center
Fri 01:15:57 PM 44.1167 -78.1667 67° East 520 598 35,000  Level Toronto Center
Fri 01:16:57 PM 44.1833 -77.9667 65° Northeast 520 598 35,000  Level Toronto Center
Fri 01:17:57 PM 44.2167 -77.7667 77° East 520 598 35,000  Level Toronto Center
Fri 01:18:57 PM 44.2833 -77.5833 63° Northeast 520 598 35,000  Level Toronto Center
Fri 01:19:57 PM 44.3333 -77.4000 69° East 520 598 35,000  Level Toronto Center
Fri 01:20:57 PM 44.3667 -77.2333 74° East 510 587 35,000  Level Toronto Center
Fri 01:21:44 PM 44.4000 -77.1000 71° East 510 587 35,000  Level Montreal Center
Fri 01:22:44 PM 44.4500 -76.9000 71° East 510 587 35,000  Level Montreal Center
Fri 01:23:44 PM 44.5000 -76.7167 69° East 510 587 35,000  Level Montreal Center
Fri 01:24:44 PM 44.5500 -76.5333 69° East 510 587 35,000  Level Montreal Center
Fri 01:25:44 PM 44.5833 -76.3500 76° East 510 587 35,000  Level Montreal Center
Fri 01:26:44 PM 44.6333 -76.1500 71° East 510 587 35,000  Level Montreal Center
Fri 01:27:44 PM 44.6833 -75.9667 69° East 500 575 35,000  Level Montreal Center
Fri 01:28:44 PM 44.7333 -75.8000 67° East 480 552 35,000 -750 Level Montreal Center
Fri 01:29:44 PM 44.7833 -75.6167 69° East 470 541 33,500 -1,800 Descending Montreal Center
Fri 01:30:44 PM 44.8333 -75.4500 67° East 480 552 31,400 -2,350 Descending Montreal Center
Fri 01:31:44 PM 44.8833 -75.2667 69° East 490 564 28,800 -2,500 Descending Montreal Center
Fri 01:32:44 PM 44.9167 -75.1000 74° East 490 564 26,400 -2,650 Descending Montreal Center
Fri 01:33:44 PM 44.9833 -74.9000 65° Northeast 480 552 23,500 -2,700 Descending Montreal Center
Fri 01:34:44 PM 45.0500 -74.7667 55° Northeast 470 541 21,000 -2,550 Descending Montreal Center
Fri 01:35:44 PM 45.1167 -74.6000 60° Northeast 470 541 18,400 -2,700 Descending Montreal Center
Fri 01:36:44 PM 45.1833 -74.4500 58° Northeast 460 529 15,600 -2,450 Descending Montreal Center
Fri 01:37:44 PM 45.2500 -74.3000 58° Northeast 440 506 13,500 -2,000 Descending Montreal Center
Fri 01:38:44 PM 45.3167 -74.1500 58° Northeast 400 460 11,600 -1,700 Descending Montreal Center
Fri 01:39:44 PM 45.3500 -74.0333 68° East 370 426 10,100 -1,350 Descending Montreal Center
Fri 01:40:44 PM 45.4333 -73.9333 40° Northeast 340 391 8,900 -1,250 Descending Montreal Center
Fri 01:41:44 PM 45.5000 -73.8667 35° Northeast 310 357 7,600 -1,600 Descending Montreal Center
Fri 01:42:44 PM 45.5667 -73.7667 46° Northeast 310 357 5,700 -1,650 Descending Montreal Center
Fri 01:43:44 PM 45.6167 -73.7000 43° Northeast 300 345 4,300 -1,300 Descending Montreal Center
Fri 01:44:44 PM 45.6500 -73.6000 64° Northeast 240 276 3,100 -650 Descending Montreal Center
Fri 01:45:44 PM 45.6000 -73.5500 145° Southeast 180 207 3,000 -300 Descending Montreal Center
Fri 01:46:44 PM 45.5667 -73.5667 199° South 170 196 2,500 -650 Descending Montreal Center
Fri 01:47:44 PM 45.5167 -73.6167 215° Southwest 170 196 1,700 -800 Descending Montreal Center
Fri 01:48:44 PM 45.5000 -73.6667 245° Southwest 140 161 900 -750 Descending Montreal Center
Fri 01:49:44 PM 45.4667 -73.7000 215° Southwest 140 161 200 -700 Descending Montreal Center

Login

Don't have an account? Register now (free) for customized features, flight alerts, and more!